sensor_id;sensor_type;location;lat;lon;timestamp;temperature;humidity
17381;DHT22;8808;52.478;13.378;2023-03-23T00:00:54;12.90;99.90
17381;DHT22;8808;52.478;13.378;2023-03-23T00:03:21;12.90;99.90
17381;DHT22;8808;52.478;13.378;2023-03-23T00:05:51;12.80;99.90
17381;DHT22;8808;52.478;13.378;2023-03-23T00:08:18;12.80;99.90
17381;DHT22;8808;52.478;13.378;2023-03-23T00:10:48;12.80;99.90
17381;DHT22;8808;52.478;13.378;2023-03-23T00:13:19;12.70;99.90
17381;DHT22;8808;52.478;13.378;2023-03-23T00:15:46;12.70;99.90
17381;DHT22;8808;52.478;13.378;2023-03-23T00:18:15;12.70;99.90
17381;DHT22;8808;52.478;13.378;2023-03-23T00:20:48;12.60;99.90
17381;DHT22;8808;52.478;13.378;2023-03-23T00:23:15;12.60;99.90
17381;DHT22;8808;52.478;13.378;2023-03-23T00:25:46;12.60;99.90
17381;DHT22;8808;52.478;13.378;2023-03-23T00:28:13;12.50;99.90
17381;DHT22;8808;52.478;13.378;2023-03-23T00:30:41;12.60;99.90
17381;DHT22;8808;52.478;13.378;2023-03-23T00:33:11;12.60;99.90
17381;DHT22;8808;52.478;13.378;2023-03-23T00:35:40;12.60;99.90
17381;DHT22;8808;52.478;13.378;2023-03-23T00:38:07;12.60;99.90
17381;DHT22;8808;52.478;13.378;2023-03-23T00:40:34;12.50;99.90
17381;DHT22;8808;52.478;13.378;2023-03-23T00:43:02;12.40;99.90
17381;DHT22;8808;52.478;13.378;2023-03-23T00:45:30;12.40;99.90
17381;DHT22;8808;52.478;13.378;2023-03-23T00:47:58;12.40;99.90
17381;DHT22;8808;52.478;13.378;2023-03-23T00:50:27;12.40;99.90
17381;DHT22;8808;52.478;13.378;2023-03-23T00:52:54;12.40;99.90
17381;DHT22;8808;52.478;13.378;2023-03-23T00:55:22;12.30;99.90
17381;DHT22;8808;52.478;13.378;2023-03-23T00:57:49;12.40;99.90
17381;DHT22;8808;52.478;13.378;2023-03-23T01:00:17;12.40;99.90
17381;DHT22;8808;52.478;13.378;2023-03-23T01:02:45;12.30;99.90
17381;DHT22;8808;52.478;13.378;2023-03-23T01:05:13;12.20;99.90
17381;DHT22;8808;52.478;13.378;2023-03-23T01:07:41;12.30;99.90
17381;DHT22;8808;52.478;13.378;2023-03-23T01:10:11;12.30;99.90
17381;DHT22;8808;52.478;13.378;2023-03-23T01:12:42;12.30;99.90
17381;DHT22;8808;52.478;13.378;2023-03-23T01:15:13;12.20;99.90
17381;DHT22;8808;52.478;13.378;2023-03-23T01:17:42;12.20;99.90
17381;DHT22;8808;52.478;13.378;2023-03-23T01:20:09;12.20;99.90
17381;DHT22;8808;52.478;13.378;2023-03-23T01:22:39;12.10;99.90
17381;DHT22;8808;52.478;13.378;2023-03-23T01:25:07;12.20;99.90
17381;DHT22;8808;52.478;13.378;2023-03-23T01:27:35;12.20;99.90
17381;DHT22;8808;52.478;13.378;2023-03-23T01:30:02;12.10;99.90
17381;DHT22;8808;52.478;13.378;2023-03-23T01:32:29;12.20;99.90
17381;DHT22;8808;52.478;13.378;2023-03-23T01:34:56;12.20;99.90
17381;DHT22;8808;52.478;13.378;2023-03-23T01:37:23;12.20;99.90
17381;DHT22;8808;52.478;13.378;2023-03-23T01:39:53;12.00;99.90
17381;DHT22;8808;52.478;13.378;2023-03-23T01:42:22;11.90;99.90
17381;DHT22;8808;52.478;13.378;2023-03-23T01:45:23;11.90;99.90
17381;DHT22;8808;52.478;13.378;2023-03-23T01:50:44;11.90;99.90
17381;DHT22;8808;52.478;13.378;2023-03-23T01:53:14;11.80;99.90
17381;DHT22;8808;52.478;13.378;2023-03-23T01:55:44;12.00;99.90
17381;DHT22;8808;52.478;13.378;2023-03-23T01:58:14;12.00;99.90
17381;DHT22;8808;52.478;13.378;2023-03-23T02:03:18;12.10;99.90
17381;DHT22;8808;52.478;13.378;2023-03-23T02:05:46;12.10;99.90
17381;DHT22;8808;52.478;13.378;2023-03-23T02:08:14;12.10;99.90
17381;DHT22;8808;52.478;13.378;2023-03-23T02:10:43;12.10;99.90
17381;DHT22;8808;52.478;13.378;2023-03-23T02:13:11;12.10;99.90
17381;DHT22;8808;52.478;13.378;2023-03-23T02:15:47;12.10;99.90
17381;DHT22;8808;52.478;13.378;2023-03-23T02:18:35;12.10;99.90
17381;DHT22;8808;52.478;13.378;2023-03-23T02:21:25;12.20;99.90
17381;DHT22;8808;52.478;13.378;2023-03-23T02:24:13;12.10;99.90
17381;DHT22;8808;52.478;13.378;2023-03-23T02:26:53;12.10;99.90
17381;DHT22;8808;52.478;13.378;2023-03-23T02:29:46;12.20;99.90
17381;DHT22;8808;52.478;13.378;2023-03-23T02:32:39;12.20;99.90
17381;DHT22;8808;52.478;13.378;2023-03-23T02:35:18;12.30;99.90
17381;DHT22;8808;52.478;13.378;2023-03-23T02:37:49;12.40;99.90
17381;DHT22;8808;52.478;13.378;2023-03-23T02:40:21;12.30;99.90
17381;DHT22;8808;52.478;13.378;2023-03-23T02:42:53;12.40;99.90
17381;DHT22;8808;52.478;13.378;2023-03-23T02:45:22;12.40;99.90
17381;DHT22;8808;52.478;13.378;2023-03-23T02:47:52;12.40;99.90
17381;DHT22;8808;52.478;13.378;2023-03-23T02:50:23;12.40;99.90
17381;DHT22;8808;52.478;13.378;2023-03-23T02:52:52;12.30;99.90
17381;DHT22;8808;52.478;13.378;2023-03-23T02:55:21;12.20;99.90
17381;DHT22;8808;52.478;13.378;2023-03-23T02:57:50;12.20;99.90
17381;DHT22;8808;52.478;13.378;2023-03-23T03:00:19;12.00;99.90
17381;DHT22;8808;52.478;13.378;2023-03-23T03:02:47;12.10;99.90
17381;DHT22;8808;52.478;13.378;2023-03-23T03:05:26;12.10;99.90
17381;DHT22;8808;52.478;13.378;2023-03-23T03:08:04;12.00;99.90
17381;DHT22;8808;52.478;13.378;2023-03-23T03:10:40;12.20;99.90
17381;DHT22;8808;52.478;13.378;2023-03-23T03:13:13;12.20;99.90
17381;DHT22;8808;52.478;13.378;2023-03-23T03:15:47;12.30;99.90
17381;DHT22;8808;52.478;13.378;2023-03-23T03:18:20;12.30;99.90
17381;DHT22;8808;52.478;13.378;2023-03-23T03:20:52;12.30;99.90
17381;DHT22;8808;52.478;13.378;2023-03-23T03:23:22;12.30;99.90
17381;DHT22;8808;52.478;13.378;2023-03-23T03:25:51;12.30;99.90
17381;DHT22;8808;52.478;13.378;2023-03-23T03:28:19;12.20;99.90
17381;DHT22;8808;52.478;13.378;2023-03-23T03:30:49;12.20;99.90
17381;DHT22;8808;52.478;13.378;2023-03-23T03:33:17;12.30;99.90
17381;DHT22;8808;52.478;13.378;2023-03-23T03:35:47;12.10;99.90
17381;DHT22;8808;52.478;13.378;2023-03-23T03:38:16;12.20;99.90
17381;DHT22;8808;52.478;13.378;2023-03-23T03:40:44;12.30;99.90
17381;DHT22;8808;52.478;13.378;2023-03-23T03:43:11;12.20;99.90
17381;DHT22;8808;52.478;13.378;2023-03-23T03:45:38;12.20;99.90
17381;DHT22;8808;52.478;13.378;2023-03-23T03:48:06;12.30;99.90
17381;DHT22;8808;52.478;13.378;2023-03-23T03:50:33;12.20;99.90
17381;DHT22;8808;52.478;13.378;2023-03-23T03:53:00;12.00;99.90
17381;DHT22;8808;52.478;13.378;2023-03-23T03:55:28;11.80;99.90
17381;DHT22;8808;52.478;13.378;2023-03-23T03:58:01;11.80;99.90
17381;DHT22;8808;52.478;13.378;2023-03-23T04:00:28;11.70;99.90
17381;DHT22;8808;52.478;13.378;2023-03-23T04:02:55;11.70;99.90
17381;DHT22;8808;52.478;13.378;2023-03-23T04:05:25;11.50;99.90
17381;DHT22;8808;52.478;13.378;2023-03-23T04:07:54;11.50;99.90
17381;DHT22;8808;52.478;13.378;2023-03-23T04:10:29;11.40;99.90
17381;DHT22;8808;52.478;13.378;2023-03-23T04:12:56;11.40;99.90
17381;DHT22;8808;52.478;13.378;2023-03-23T04:15:23;11.40;99.90
17381;DHT22;8808;52.478;13.378;2023-03-23T04:17:51;11.30;99.90
17381;DHT22;8808;52.478;13.378;2023-03-23T04:20:18;11.40;99.90
17381;DHT22;8808;52.478;13.378;2023-03-23T04:22:45;11.40;99.90
17381;DHT22;8808;52.478;13.378;2023-03-23T04:25:16;11.40;99.90
17381;DHT22;8808;52.478;13.378;2023-03-23T04:27:48;11.30;99.90
17381;DHT22;8808;52.478;13.378;2023-03-23T04:30:18;11.20;99.90
17381;DHT22;8808;52.478;13.378;2023-03-23T04:32:46;11.20;99.90
17381;DHT22;8808;52.478;13.378;2023-03-23T04:35:16;11.30;99.90
17381;DHT22;8808;52.478;13.378;2023-03-23T04:37:44;11.30;99.90
17381;DHT22;8808;52.478;13.378;2023-03-23T04:40:13;11.30;99.90
17381;DHT22;8808;52.478;13.378;2023-03-23T04:42:40;11.20;99.90
17381;DHT22;8808;52.478;13.378;2023-03-23T04:45:14;11.10;99.90
17381;DHT22;8808;52.478;13.378;2023-03-23T04:47:41;11.10;99.90
17381;DHT22;8808;52.478;13.378;2023-03-23T04:50:15;11.00;99.90
17381;DHT22;8808;52.478;13.378;2023-03-23T04:52:42;11.00;99.90
17381;DHT22;8808;52.478;13.378;2023-03-23T04:55:10;11.10;99.90
17381;DHT22;8808;52.478;13.378;2023-03-23T04:57:38;11.10;99.90
17381;DHT22;8808;52.478;13.378;2023-03-23T05:00:07;11.10;99.90
17381;DHT22;8808;52.478;13.378;2023-03-23T05:02:36;11.00;99.90
17381;DHT22;8808;52.478;13.378;2023-03-23T05:05:05;11.00;99.90
17381;DHT22;8808;52.478;13.378;2023-03-23T05:07:32;11.10;99.90
17381;DHT22;8808;52.478;13.378;2023-03-23T05:09:59;11.10;99.90
17381;DHT22;8808;52.478;13.378;2023-03-23T05:12:26;11.20;99.90
17381;DHT22;8808;52.478;13.378;2023-03-23T05:14:53;11.10;99.90
17381;DHT22;8808;52.478;13.378;2023-03-23T05:17:20;11.10;99.90
17381;DHT22;8808;52.478;13.378;2023-03-23T05:19:51;11.20;99.90
17381;DHT22;8808;52.478;13.378;2023-03-23T05:22:18;11.10;99.90
17381;DHT22;8808;52.478;13.378;2023-03-23T05:24:46;11.10;99.90
17381;DHT22;8808;52.478;13.378;2023-03-23T05:27:14;11.20;99.90
17381;DHT22;8808;52.478;13.378;2023-03-23T05:29:43;11.20;99.90
17381;DHT22;8808;52.478;13.378;2023-03-23T05:32:11;11.20;99.90
17381;DHT22;8808;52.478;13.378;2023-03-23T05:34:39;11.40;99.90
17381;DHT22;8808;52.478;13.378;2023-03-23T05:37:07;11.20;99.90
17381;DHT22;8808;52.478;13.378;2023-03-23T05:39:35;11.10;99.90
17381;DHT22;8808;52.478;13.378;2023-03-23T05:42:03;11.40;99.90
17381;DHT22;8808;52.478;13.378;2023-03-23T05:44:30;11.50;99.90
17381;DHT22;8808;52.478;13.378;2023-03-23T05:46:57;11.40;99.90
17381;DHT22;8808;52.478;13.378;2023-03-23T05:49:24;11.50;99.90
17381;DHT22;8808;52.478;13.378;2023-03-23T05:51:52;11.50;99.90
17381;DHT22;8808;52.478;13.378;2023-03-23T05:54:20;11.40;99.90
17381;DHT22;8808;52.478;13.378;2023-03-23T05:56:47;11.50;99.90
17381;DHT22;8808;52.478;13.378;2023-03-23T05:59:14;11.50;99.90
17381;DHT22;8808;52.478;13.378;2023-03-23T06:01:42;11.50;99.90
17381;DHT22;8808;52.478;13.378;2023-03-23T06:04:09;11.50;99.90
17381;DHT22;8808;52.478;13.378;2023-03-23T06:06:37;11.40;99.90
17381;DHT22;8808;52.478;13.378;2023-03-23T06:09:04;11.40;99.90
17381;DHT22;8808;52.478;13.378;2023-03-23T06:11:34;11.40;99.90
17381;DHT22;8808;52.478;13.378;2023-03-23T06:14:01;11.40;99.90
17381;DHT22;8808;52.478;13.378;2023-03-23T06:16:29;11.40;99.90
17381;DHT22;8808;52.478;13.378;2023-03-23T06:18:56;11.30;99.90
17381;DHT22;8808;52.478;13.378;2023-03-23T06:21:23;11.30;99.90
17381;DHT22;8808;52.478;13.378;2023-03-23T06:23:50;11.20;99.90
17381;DHT22;8808;52.478;13.378;2023-03-23T06:26:18;11.30;99.90
17381;DHT22;8808;52.478;13.378;2023-03-23T06:28:47;11.30;99.90
17381;DHT22;8808;52.478;13.378;2023-03-23T06:31:14;11.40;99.90
17381;DHT22;8808;52.478;13.378;2023-03-23T06:33:42;11.40;99.90
17381;DHT22;8808;52.478;13.378;2023-03-23T06:36:10;11.40;99.90
17381;DHT22;8808;52.478;13.378;2023-03-23T06:38:37;11.40;99.90
17381;DHT22;8808;52.478;13.378;2023-03-23T06:41:05;11.30;99.90
17381;DHT22;8808;52.478;13.378;2023-03-23T06:43:32;11.40;99.90
17381;DHT22;8808;52.478;13.378;2023-03-23T06:46:02;11.40;99.90
17381;DHT22;8808;52.478;13.378;2023-03-23T06:48:30;11.50;99.90
17381;DHT22;8808;52.478;13.378;2023-03-23T06:50:57;11.40;99.90
17381;DHT22;8808;52.478;13.378;2023-03-23T06:53:24;11.50;99.90
17381;DHT22;8808;52.478;13.378;2023-03-23T06:55:51;11.50;99.90
17381;DHT22;8808;52.478;13.378;2023-03-23T06:58:18;11.60;99.90
17381;DHT22;8808;52.478;13.378;2023-03-23T07:00:46;11.50;99.90
17381;DHT22;8808;52.478;13.378;2023-03-23T07:03:15;11.50;99.90
17381;DHT22;8808;52.478;13.378;2023-03-23T07:05:41;11.50;99.90
17381;DHT22;8808;52.478;13.378;2023-03-23T07:08:12;11.50;99.90
17381;DHT22;8808;52.478;13.378;2023-03-23T07:10:39;11.50;99.90
17381;DHT22;8808;52.478;13.378;2023-03-23T07:13:06;11.50;99.90
17381;DHT22;8808;52.478;13.378;2023-03-23T07:15:33;11.50;99.90
17381;DHT22;8808;52.478;13.378;2023-03-23T07:18:00;11.50;99.90
17381;DHT22;8808;52.478;13.378;2023-03-23T07:20:28;11.50;99.90
17381;DHT22;8808;52.478;13.378;2023-03-23T07:22:55;11.50;99.90
17381;DHT22;8808;52.478;13.378;2023-03-23T07:25:22;11.50;99.90
17381;DHT22;8808;52.478;13.378;2023-03-23T07:27:49;11.60;99.90
17381;DHT22;8808;52.478;13.378;2023-03-23T07:30:16;11.60;99.90
17381;DHT22;8808;52.478;13.378;2023-03-23T07:32:43;11.60;99.90
17381;DHT22;8808;52.478;13.378;2023-03-23T07:35:10;11.60;99.90
17381;DHT22;8808;52.478;13.378;2023-03-23T07:37:39;11.60;99.90
17381;DHT22;8808;52.478;13.378;2023-03-23T07:40:08;11.60;99.90
17381;DHT22;8808;52.478;13.378;2023-03-23T07:42:35;11.60;99.90
17381;DHT22;8808;52.478;13.378;2023-03-23T07:45:02;11.70;99.90
17381;DHT22;8808;52.478;13.378;2023-03-23T07:47:29;11.70;99.90
17381;DHT22;8808;52.478;13.378;2023-03-23T07:49:57;11.70;99.90
17381;DHT22;8808;52.478;13.378;2023-03-23T07:52:23;11.70;99.90
17381;DHT22;8808;52.478;13.378;2023-03-23T07:54:52;11.70;99.90
17381;DHT22;8808;52.478;13.378;2023-03-23T07:57:19;11.70;99.90
17381;DHT22;8808;52.478;13.378;2023-03-23T07:59:46;11.70;99.90
17381;DHT22;8808;52.478;13.378;2023-03-23T08:02:13;11.80;99.90
17381;DHT22;8808;52.478;13.378;2023-03-23T08:04:40;11.80;99.90
17381;DHT22;8808;52.478;13.378;2023-03-23T08:07:08;11.70;99.90
17381;DHT22;8808;52.478;13.378;2023-03-23T08:09:37;11.70;99.90
17381;DHT22;8808;52.478;13.378;2023-03-23T08:12:06;11.80;99.90
17381;DHT22;8808;52.478;13.378;2023-03-23T08:14:33;11.80;99.90
17381;DHT22;8808;52.478;13.378;2023-03-23T08:17:00;11.90;99.90
17381;DHT22;8808;52.478;13.378;2023-03-23T08:19:27;11.90;99.90
17381;DHT22;8808;52.478;13.378;2023-03-23T08:21:54;11.80;99.90
17381;DHT22;8808;52.478;13.378;2023-03-23T08:24:21;11.90;99.90
17381;DHT22;8808;52.478;13.378;2023-03-23T08:26:49;12.00;99.90
17381;DHT22;8808;52.478;13.378;2023-03-23T08:29:17;12.00;99.90
17381;DHT22;8808;52.478;13.378;2023-03-23T08:31:44;12.00;99.90
17381;DHT22;8808;52.478;13.378;2023-03-23T08:34:12;12.00;99.90
17381;DHT22;8808;52.478;13.378;2023-03-23T08:36:41;12.10;99.90
17381;DHT22;8808;52.478;13.378;2023-03-23T08:39:10;12.00;99.90
17381;DHT22;8808;52.478;13.378;2023-03-23T08:41:36;12.00;99.90
17381;DHT22;8808;52.478;13.378;2023-03-23T08:44:04;12.00;99.90
17381;DHT22;8808;52.478;13.378;2023-03-23T08:46:32;12.10;99.90
17381;DHT22;8808;52.478;13.378;2023-03-23T08:48:59;12.10;99.90
17381;DHT22;8808;52.478;13.378;2023-03-23T08:51:26;12.10;99.90
17381;DHT22;8808;52.478;13.378;2023-03-23T08:53:53;12.20;99.90
17381;DHT22;8808;52.478;13.378;2023-03-23T08:56:20;12.30;99.90
17381;DHT22;8808;52.478;13.378;2023-03-23T08:58:48;12.20;99.90
17381;DHT22;8808;52.478;13.378;2023-03-23T09:01:15;12.30;99.90
17381;DHT22;8808;52.478;13.378;2023-03-23T09:03:44;12.30;99.90
17381;DHT22;8808;52.478;13.378;2023-03-23T09:06:11;12.40;99.90
17381;DHT22;8808;52.478;13.378;2023-03-23T09:08:39;12.50;99.90
17381;DHT22;8808;52.478;13.378;2023-03-23T09:11:08;12.60;99.90
17381;DHT22;8808;52.478;13.378;2023-03-23T09:13:35;12.60;99.90
17381;DHT22;8808;52.478;13.378;2023-03-23T09:16:03;12.60;99.90
17381;DHT22;8808;52.478;13.378;2023-03-23T09:18:31;12.60;99.90
17381;DHT22;8808;52.478;13.378;2023-03-23T09:21:00;12.60;99.90
17381;DHT22;8808;52.478;13.378;2023-03-23T09:23:28;12.70;99.90
17381;DHT22;8808;52.478;13.378;2023-03-23T09:25:55;12.70;99.90
17381;DHT22;8808;52.478;13.378;2023-03-23T09:28:22;12.70;99.90
17381;DHT22;8808;52.478;13.378;2023-03-23T09:30:49;12.70;99.90
17381;DHT22;8808;52.478;13.378;2023-03-23T09:33:17;12.80;99.90
17381;DHT22;8808;52.478;13.378;2023-03-23T09:35:44;12.90;99.90
17381;DHT22;8808;52.478;13.378;2023-03-23T09:38:12;13.00;99.90
17381;DHT22;8808;52.478;13.378;2023-03-23T09:40:45;13.10;99.90
17381;DHT22;8808;52.478;13.378;2023-03-23T09:43:33;13.20;99.90
17381;DHT22;8808;52.478;13.378;2023-03-23T09:46:14;13.30;99.90
17381;DHT22;8808;52.478;13.378;2023-03-23T09:48:49;13.50;99.90
17381;DHT22;8808;52.478;13.378;2023-03-23T09:51:31;13.60;99.90
17381;DHT22;8808;52.478;13.378;2023-03-23T09:54:03;13.60;99.90
17381;DHT22;8808;52.478;13.378;2023-03-23T09:56:33;13.70;99.90
17381;DHT22;8808;52.478;13.378;2023-03-23T09:59:09;13.70;99.90
17381;DHT22;8808;52.478;13.378;2023-03-23T10:01:41;13.80;99.90
17381;DHT22;8808;52.478;13.378;2023-03-23T10:04:13;13.90;99.90
17381;DHT22;8808;52.478;13.378;2023-03-23T10:06:41;13.90;99.90
17381;DHT22;8808;52.478;13.378;2023-03-23T10:09:13;13.80;99.90
17381;DHT22;8808;52.478;13.378;2023-03-23T10:11:50;13.80;99.90
17381;DHT22;8808;52.478;13.378;2023-03-23T10:14:34;14.40;99.90
17381;DHT22;8808;52.478;13.378;2023-03-23T10:17:12;14.20;99.90
17381;DHT22;8808;52.478;13.378;2023-03-23T10:19:58;14.60;99.90
17381;DHT22;8808;52.478;13.378;2023-03-23T10:22:29;14.70;99.90
17381;DHT22;8808;52.478;13.378;2023-03-23T10:25:06;14.30;99.90
17381;DHT22;8808;52.478;13.378;2023-03-23T10:27:40;14.30;99.90
17381;DHT22;8808;52.478;13.378;2023-03-23T10:30:16;14.10;99.90
17381;DHT22;8808;52.478;13.378;2023-03-23T10:32:47;14.10;99.90
17381;DHT22;8808;52.478;13.378;2023-03-23T10:35:18;14.20;99.90
17381;DHT22;8808;52.478;13.378;2023-03-23T10:37:49;14.20;99.90
17381;DHT22;8808;52.478;13.378;2023-03-23T10:40:22;14.30;99.90
17381;DHT22;8808;52.478;13.378;2023-03-23T10:42:50;14.40;99.90
17381;DHT22;8808;52.478;13.378;2023-03-23T10:45:20;14.40;99.90
17381;DHT22;8808;52.478;13.378;2023-03-23T10:47:52;14.30;99.90
17381;DHT22;8808;52.478;13.378;2023-03-23T10:50:24;14.30;99.90
17381;DHT22;8808;52.478;13.378;2023-03-23T10:52:52;14.30;99.90
17381;DHT22;8808;52.478;13.378;2023-03-23T10:55:24;14.40;99.90
17381;DHT22;8808;52.478;13.378;2023-03-23T10:58:02;14.40;99.90
17381;DHT22;8808;52.478;13.378;2023-03-23T11:00:30;14.40;99.90
17381;DHT22;8808;52.478;13.378;2023-03-23T11:03:00;14.40;99.90
17381;DHT22;8808;52.478;13.378;2023-03-23T11:05:34;14.30;99.90
17381;DHT22;8808;52.478;13.378;2023-03-23T11:08:02;14.30;99.90
17381;DHT22;8808;52.478;13.378;2023-03-23T11:10:36;14.40;99.90
17381;DHT22;8808;52.478;13.378;2023-03-23T11:13:04;14.40;99.90
17381;DHT22;8808;52.478;13.378;2023-03-23T11:15:37;14.40;99.90
17381;DHT22;8808;52.478;13.378;2023-03-23T11:18:08;14.50;99.90
17381;DHT22;8808;52.478;13.378;2023-03-23T11:20:39;14.50;99.90
17381;DHT22;8808;52.478;13.378;2023-03-23T11:23:19;14.50;99.90
17381;DHT22;8808;52.478;13.378;2023-03-23T11:25:57;14.50;99.90
17381;DHT22;8808;52.478;13.378;2023-03-23T11:28:31;14.50;99.90
17381;DHT22;8808;52.478;13.378;2023-03-23T11:31:00;14.60;99.90
17381;DHT22;8808;52.478;13.378;2023-03-23T11:33:36;14.60;99.90
17381;DHT22;8808;52.478;13.378;2023-03-23T11:36:06;14.70;99.90
17381;DHT22;8808;52.478;13.378;2023-03-23T11:38:33;14.70;99.90
17381;DHT22;8808;52.478;13.378;2023-03-23T11:41:09;14.80;99.90
17381;DHT22;8808;52.478;13.378;2023-03-23T11:43:40;14.80;99.90
17381;DHT22;8808;52.478;13.378;2023-03-23T11:46:13;14.80;99.90
17381;DHT22;8808;52.478;13.378;2023-03-23T11:48:45;14.90;99.90
17381;DHT22;8808;52.478;13.378;2023-03-23T11:51:19;15.00;99.90
17381;DHT22;8808;52.478;13.378;2023-03-23T11:53:54;15.10;99.90
17381;DHT22;8808;52.478;13.378;2023-03-23T11:56:28;15.10;99.90
17381;DHT22;8808;52.478;13.378;2023-03-23T11:58:57;15.20;99.90
17381;DHT22;8808;52.478;13.378;2023-03-23T12:01:36;15.20;99.90
17381;DHT22;8808;52.478;13.378;2023-03-23T12:07:31;15.30;99.90
17381;DHT22;8808;52.478;13.378;2023-03-23T12:10:12;15.30;99.90
17381;DHT22;8808;52.478;13.378;2023-03-23T12:12:46;15.30;99.90
17381;DHT22;8808;52.478;13.378;2023-03-23T12:15:21;15.30;99.90
17381;DHT22;8808;52.478;13.378;2023-03-23T12:17:57;15.40;99.90
17381;DHT22;8808;52.478;13.378;2023-03-23T12:20:32;15.30;99.90
17381;DHT22;8808;52.478;13.378;2023-03-23T12:23:14;15.30;99.90
17381;DHT22;8808;52.478;13.378;2023-03-23T12:26:02;15.30;99.90
17381;DHT22;8808;52.478;13.378;2023-03-23T12:28:42;15.30;99.90
17381;DHT22;8808;52.478;13.378;2023-03-23T12:31:18;15.40;99.90
17381;DHT22;8808;52.478;13.378;2023-03-23T12:33:52;15.40;99.90
17381;DHT22;8808;52.478;13.378;2023-03-23T12:36:30;15.40;99.90
17381;DHT22;8808;52.478;13.378;2023-03-23T12:39:08;15.40;99.90
17381;DHT22;8808;52.478;13.378;2023-03-23T12:41:44;15.60;99.90
17381;DHT22;8808;52.478;13.378;2023-03-23T12:44:15;15.70;99.90
17381;DHT22;8808;52.478;13.378;2023-03-23T12:46:55;15.50;99.90
17381;DHT22;8808;52.478;13.378;2023-03-23T12:49:27;15.40;99.90
17381;DHT22;8808;52.478;13.378;2023-03-23T12:52:00;15.50;99.90
17381;DHT22;8808;52.478;13.378;2023-03-23T12:54:32;15.50;99.90
17381;DHT22;8808;52.478;13.378;2023-03-23T12:57:04;15.50;99.90
17381;DHT22;8808;52.478;13.378;2023-03-23T12:59:39;15.50;99.90
17381;DHT22;8808;52.478;13.378;2023-03-23T13:02:15;15.70;99.90
17381;DHT22;8808;52.478;13.378;2023-03-23T13:04:48;15.80;99.90
17381;DHT22;8808;52.478;13.378;2023-03-23T13:07:20;16.00;99.90
17381;DHT22;8808;52.478;13.378;2023-03-23T13:09:53;16.00;99.90
17381;DHT22;8808;52.478;13.378;2023-03-23T13:12:23;16.10;99.90
17381;DHT22;8808;52.478;13.378;2023-03-23T13:15:00;16.20;99.90
17381;DHT22;8808;52.478;13.378;2023-03-23T13:17:38;16.20;99.90
17381;DHT22;8808;52.478;13.378;2023-03-23T13:20:30;16.20;99.90
17381;DHT22;8808;52.478;13.378;2023-03-23T13:23:01;16.20;99.90
17381;DHT22;8808;52.478;13.378;2023-03-23T13:25:43;16.30;99.90
17381;DHT22;8808;52.478;13.378;2023-03-23T13:28:15;16.10;99.90
17381;DHT22;8808;52.478;13.378;2023-03-23T13:31:01;16.30;99.90
17381;DHT22;8808;52.478;13.378;2023-03-23T13:33:33;16.30;99.90
17381;DHT22;8808;52.478;13.378;2023-03-23T13:36:08;16.40;99.90
17381;DHT22;8808;52.478;13.378;2023-03-23T13:38:36;16.60;99.90
17381;DHT22;8808;52.478;13.378;2023-03-23T13:41:08;17.20;99.90
17381;DHT22;8808;52.478;13.378;2023-03-23T13:43:37;16.90;99.90
17381;DHT22;8808;52.478;13.378;2023-03-23T13:46:13;17.40;99.90
17381;DHT22;8808;52.478;13.378;2023-03-23T13:48:43;17.10;99.90
17381;DHT22;8808;52.478;13.378;2023-03-23T13:51:26;16.90;99.90
17381;DHT22;8808;52.478;13.378;2023-03-23T13:54:12;16.90;99.90
17381;DHT22;8808;52.478;13.378;2023-03-23T13:56:41;17.00;99.90
17381;DHT22;8808;52.478;13.378;2023-03-23T13:59:14;16.90;99.90
17381;DHT22;8808;52.478;13.378;2023-03-23T14:01:43;16.60;99.90
17381;DHT22;8808;52.478;13.378;2023-03-23T14:04:13;16.50;99.90
17381;DHT22;8808;52.478;13.378;2023-03-23T14:06:41;16.60;99.90
17381;DHT22;8808;52.478;13.378;2023-03-23T14:09:15;16.60;99.90
17381;DHT22;8808;52.478;13.378;2023-03-23T14:11:49;16.70;99.90
17381;DHT22;8808;52.478;13.378;2023-03-23T14:14:25;17.10;99.90
17381;DHT22;8808;52.478;13.378;2023-03-23T14:17:06;17.00;99.90
17381;DHT22;8808;52.478;13.378;2023-03-23T14:19:36;16.70;99.90
17381;DHT22;8808;52.478;13.378;2023-03-23T14:22:04;16.50;99.90
17381;DHT22;8808;52.478;13.378;2023-03-23T14:24:32;16.50;99.90
17381;DHT22;8808;52.478;13.378;2023-03-23T14:27:10;16.60;99.90
17381;DHT22;8808;52.478;13.378;2023-03-23T14:29:37;16.60;99.90
17381;DHT22;8808;52.478;13.378;2023-03-23T14:32:07;16.40;99.90
17381;DHT22;8808;52.478;13.378;2023-03-23T14:34:37;16.30;99.90
17381;DHT22;8808;52.478;13.378;2023-03-23T14:37:04;16.20;99.90
17381;DHT22;8808;52.478;13.378;2023-03-23T14:39:32;16.20;99.90
17381;DHT22;8808;52.478;13.378;2023-03-23T14:42:02;16.10;99.90
17381;DHT22;8808;52.478;13.378;2023-03-23T14:44:33;16.10;99.90
17381;DHT22;8808;52.478;13.378;2023-03-23T14:47:02;16.00;99.90
17381;DHT22;8808;52.478;13.378;2023-03-23T14:49:33;16.00;99.90
17381;DHT22;8808;52.478;13.378;2023-03-23T14:52:08;15.90;99.90
17381;DHT22;8808;52.478;13.378;2023-03-23T14:54:35;15.80;99.90
17381;DHT22;8808;52.478;13.378;2023-03-23T14:57:11;15.80;99.90
17381;DHT22;8808;52.478;13.378;2023-03-23T14:59:40;15.80;99.90
17381;DHT22;8808;52.478;13.378;2023-03-23T15:02:11;15.70;99.90
17381;DHT22;8808;52.478;13.378;2023-03-23T15:04:40;15.80;99.90
17381;DHT22;8808;52.478;13.378;2023-03-23T15:07:09;15.90;99.90
17381;DHT22;8808;52.478;13.378;2023-03-23T15:09:40;16.00;99.90
17381;DHT22;8808;52.478;13.378;2023-03-23T15:12:18;16.00;99.90
17381;DHT22;8808;52.478;13.378;2023-03-23T15:14:48;15.90;99.90
17381;DHT22;8808;52.478;13.378;2023-03-23T15:17:19;15.90;99.90
17381;DHT22;8808;52.478;13.378;2023-03-23T15:19:48;16.00;99.90
17381;DHT22;8808;52.478;13.378;2023-03-23T15:22:19;16.00;99.90
17381;DHT22;8808;52.478;13.378;2023-03-23T15:24:47;16.10;99.90
17381;DHT22;8808;52.478;13.378;2023-03-23T15:27:17;16.20;99.90
17381;DHT22;8808;52.478;13.378;2023-03-23T15:29:49;16.10;99.90
17381;DHT22;8808;52.478;13.378;2023-03-23T15:32:24;16.20;99.90
17381;DHT22;8808;52.478;13.378;2023-03-23T15:34:53;16.20;99.90
17381;DHT22;8808;52.478;13.378;2023-03-23T15:37:23;16.10;99.90
17381;DHT22;8808;52.478;13.378;2023-03-23T15:39:52;16.20;99.90
17381;DHT22;8808;52.478;13.378;2023-03-23T15:42:25;16.50;99.90
17381;DHT22;8808;52.478;13.378;2023-03-23T15:47:45;16.20;99.90
17381;DHT22;8808;52.478;13.378;2023-03-23T15:50:16;16.20;99.90
17381;DHT22;8808;52.478;13.378;2023-03-23T15:52:45;16.20;99.90
17381;DHT22;8808;52.478;13.378;2023-03-23T15:55:23;16.20;99.90
17381;DHT22;8808;52.478;13.378;2023-03-23T15:57:51;16.20;99.90
17381;DHT22;8808;52.478;13.378;2023-03-23T16:00:21;16.20;99.90
17381;DHT22;8808;52.478;13.378;2023-03-23T16:02:51;16.20;99.90